createdAt,value
2022-12-20T00:00:51.780Z,49.10
2022-12-20T00:03:20.228Z,48.77
2022-12-20T00:05:47.332Z,49.24
2022-12-20T00:08:14.621Z,48.98
2022-12-20T00:10:43.039Z,49.28
2022-12-20T00:13:10.179Z,49.21
2022-12-20T00:15:37.300Z,49.13
2022-12-20T00:18:04.560Z,49.33
2022-12-20T00:20:31.300Z,49.27
2022-12-20T00:22:58.343Z,49.08
2022-12-20T00:25:25.136Z,49.48
2022-12-20T00:27:52.299Z,49.42
2022-12-20T00:30:19.326Z,49.23
2022-12-20T00:32:46.434Z,49.11
2022-12-20T00:35:13.260Z,49.09
2022-12-20T00:37:40.336Z,49.35
2022-12-20T00:40:07.657Z,49.07
2022-12-20T00:42:34.688Z,49.55
2022-12-20T00:45:01.449Z,49.22
2022-12-20T00:47:28.503Z,49.73
2022-12-20T00:49:55.211Z,49.45
2022-12-20T00:52:22.395Z,49.50
2022-12-20T00:54:49.145Z,49.42
2022-12-20T00:57:16.148Z,49.67
2022-12-20T00:59:42.873Z,49.80
2022-12-20T01:02:10.115Z,49.57
2022-12-20T01:04:37.055Z,49.75
2022-12-20T01:07:04.342Z,49.84
2022-12-20T01:09:31.683Z,49.86
2022-12-20T01:11:58.680Z,49.97
2022-12-20T01:14:25.391Z,49.72
2022-12-20T01:16:52.519Z,49.79
2022-12-20T01:19:19.447Z,49.98
2022-12-20T01:21:46.831Z,49.89
2022-12-20T01:24:14.584Z,49.83
2022-12-20T01:26:41.772Z,49.84
2022-12-20T01:29:08.666Z,50.08
2022-12-20T01:31:35.812Z,49.88
2022-12-20T01:34:03.498Z,49.88
2022-12-20T01:36:32.053Z,49.77
2022-12-20T01:39:00.263Z,49.83
2022-12-20T01:41:27.888Z,49.59
2022-12-20T01:43:59.987Z,49.93
2022-12-20T01:46:28.901Z,49.83
2022-12-20T01:49:32.745Z,50.03
2022-12-20T01:51:59.749Z,49.66
2022-12-20T01:54:32.587Z,50.10
2022-12-20T01:57:05.157Z,49.96
2022-12-20T01:59:31.927Z,50.17
2022-12-20T02:01:59.371Z,49.80
2022-12-20T02:04:26.476Z,49.75
2022-12-20T02:06:53.538Z,50.15
2022-12-20T02:09:20.256Z,49.96
2022-12-20T02:12:17.806Z,49.55
2022-12-20T02:15:12.132Z,49.93
2022-12-20T02:17:51.373Z,49.82
2022-12-20T02:20:30.334Z,50.01
2022-12-20T02:23:19.396Z,50.00
2022-12-20T02:26:10.758Z,49.50
2022-12-20T02:28:55.167Z,49.55
2022-12-20T02:31:26.373Z,49.45
2022-12-20T02:33:53.729Z,49.71
2022-12-20T02:36:20.449Z,49.51
2022-12-20T02:38:47.464Z,49.69
2022-12-20T02:41:14.187Z,49.58
2022-12-20T02:44:01.297Z,49.69
2022-12-20T02:46:28.114Z,49.74
2022-12-20T02:49:00.114Z,49.65
2022-12-20T02:51:27.344Z,49.74
2022-12-20T02:53:54.400Z,49.95
2022-12-20T02:56:34.677Z,49.76
2022-12-20T02:59:23.493Z,49.90
2022-12-20T03:01:54.871Z,49.93
2022-12-20T03:04:27.025Z,49.89
2022-12-20T03:06:59.702Z,49.70
2022-12-20T03:09:27.049Z,49.76
2022-12-20T03:11:54.211Z,49.79
2022-12-20T03:14:21.533Z,49.67
2022-12-20T03:16:48.481Z,49.62
2022-12-20T03:19:15.681Z,49.75
2022-12-20T03:21:42.673Z,49.69
2022-12-20T03:24:11.178Z,49.74
2022-12-20T03:26:37.932Z,50.04
2022-12-20T03:29:05.041Z,49.67
2022-12-20T03:31:31.815Z,49.95
2022-12-20T03:33:58.877Z,49.94
2022-12-20T03:36:25.648Z,49.70
2022-12-20T03:38:53.306Z,50.05
2022-12-20T03:41:21.322Z,49.83
2022-12-20T03:43:48.976Z,49.74
2022-12-20T03:46:16.170Z,50.04
2022-12-20T03:48:43.596Z,50.14
2022-12-20T03:51:10.556Z,50.27
2022-12-20T03:53:37.622Z,50.26
2022-12-20T03:56:04.541Z,50.08
2022-12-20T03:58:31.585Z,49.68
2022-12-20T04:00:59.154Z,50.12
2022-12-20T04:03:26.329Z,50.08
2022-12-20T04:05:53.145Z,50.11
2022-12-20T04:08:20.230Z,50.04
2022-12-20T04:11:05.650Z,50.17
2022-12-20T04:13:32.616Z,49.87
2022-12-20T04:16:00.955Z,50.16
2022-12-20T04:18:28.447Z,49.95
2022-12-20T04:20:55.449Z,50.04
2022-12-20T04:23:22.617Z,49.88
2022-12-20T04:25:49.349Z,50.17
2022-12-20T04:28:16.459Z,50.23
2022-12-20T04:30:43.225Z,50.15
2022-12-20T04:33:10.266Z,50.13
2022-12-20T04:35:37.708Z,49.99
2022-12-20T04:38:04.771Z,50.19
2022-12-20T04:40:31.551Z,50.12
2022-12-20T04:42:58.619Z,50.19
2022-12-20T04:45:25.377Z,50.15
2022-12-20T04:47:52.459Z,50.04
2022-12-20T04:50:19.294Z,50.09
2022-12-20T04:53:04.992Z,50.21
2022-12-20T04:55:32.089Z,50.21
2022-12-20T04:58:03.757Z,50.16
2022-12-20T05:00:34.341Z,50.09
2022-12-20T05:03:01.598Z,49.95
2022-12-20T05:05:28.494Z,49.83
2022-12-20T05:07:55.709Z,49.97
2022-12-20T05:10:22.523Z,50.15
2022-12-20T05:12:49.567Z,50.03
2022-12-20T05:15:16.433Z,49.79
2022-12-20T05:17:43.573Z,50.03
2022-12-20T05:20:10.899Z,49.86
2022-12-20T05:22:56.498Z,49.92
2022-12-20T05:25:41.813Z,49.87
2022-12-20T05:28:08.857Z,50.30
2022-12-20T05:30:35.588Z,49.99
2022-12-20T05:33:02.671Z,50.47
2022-12-20T05:35:29.430Z,50.25
2022-12-20T05:37:56.692Z,50.03
2022-12-20T05:40:23.512Z,50.43
2022-12-20T05:42:50.595Z,49.78
2022-12-20T05:45:17.321Z,49.87
2022-12-20T05:47:44.806Z,50.35
2022-12-20T05:50:18.366Z,50.42
2022-12-20T05:52:46.134Z,50.18
2022-12-20T05:55:13.828Z,50.56
2022-12-20T05:57:40.892Z,50.53
2022-12-20T06:00:08.297Z,50.58
2022-12-20T06:02:35.488Z,50.39
2022-12-20T06:05:02.888Z,50.65
2022-12-20T06:07:30.060Z,50.33
2022-12-20T06:09:56.849Z,50.71
2022-12-20T06:12:24.040Z,50.62
2022-12-20T06:14:51.179Z,50.65
2022-12-20T06:17:18.761Z,50.64
2022-12-20T06:19:45.699Z,50.47
2022-12-20T06:22:13.456Z,50.75
2022-12-20T06:24:45.984Z,50.60
2022-12-20T06:27:15.225Z,50.27
2022-12-20T06:29:42.003Z,50.45
2022-12-20T06:32:09.069Z,50.61
2022-12-20T06:34:35.895Z,50.49
2022-12-20T06:37:02.976Z,50.16
2022-12-20T06:39:29.711Z,50.22
2022-12-20T06:41:56.781Z,50.41
2022-12-20T06:44:23.545Z,50.29
2022-12-20T06:46:50.615Z,50.32
2022-12-20T06:49:17.377Z,50.17
2022-12-20T06:51:44.549Z,50.14
2022-12-20T06:54:11.289Z,50.09
2022-12-20T06:56:41.507Z,50.15
2022-12-20T06:59:08.614Z,50.30
2022-12-20T07:01:35.754Z,50.21
2022-12-20T07:04:02.660Z,49.99
2022-12-20T07:06:29.675Z,50.39
2022-12-20T07:08:56.474Z,50.64
2022-12-20T07:11:23.561Z,51.19
2022-12-20T07:13:56.255Z,51.06
2022-12-20T07:16:23.700Z,50.92
2022-12-20T07:18:52.581Z,50.74
2022-12-20T07:21:19.935Z,50.73
2022-12-20T07:23:47.669Z,50.92
2022-12-20T07:26:14.931Z,50.96
2022-12-20T07:28:42.250Z,50.59
2022-12-20T07:31:09.354Z,50.72
2022-12-20T07:33:37.320Z,50.88
2022-12-20T07:36:09.803Z,50.49
2022-12-20T07:38:37.039Z,50.87
2022-12-20T07:41:08.625Z,50.87
2022-12-20T07:43:35.523Z,50.79
2022-12-20T07:46:03.630Z,50.84
2022-12-20T07:48:30.430Z,50.50
2022-12-20T07:51:07.674Z,50.83
2022-12-20T07:53:35.133Z,50.66
2022-12-20T07:56:02.186Z,50.63
2022-12-20T07:58:29.210Z,50.75
2022-12-20T08:00:56.703Z,50.85
2022-12-20T08:03:26.265Z,50.35
2022-12-20T08:05:54.712Z,50.56
2022-12-20T08:08:22.188Z,50.35
2022-12-20T08:10:49.318Z,50.38
2022-12-20T08:13:16.134Z,50.34
2022-12-20T08:15:43.359Z,50.33
2022-12-20T08:18:10.097Z,50.47
2022-12-20T08:20:37.206Z,50.35
2022-12-20T08:23:04.547Z,50.36
2022-12-20T08:25:36.003Z,50.50
2022-12-20T08:28:08.033Z,50.47
2022-12-20T08:30:35.172Z,50.46
2022-12-20T08:33:01.927Z,50.51
2022-12-20T08:35:29.085Z,50.32
2022-12-20T08:37:56.884Z,50.36
2022-12-20T08:40:24.037Z,50.53
2022-12-20T08:42:50.800Z,50.63
2022-12-20T08:45:19.297Z,50.41
2022-12-20T08:47:46.060Z,50.52
2022-12-20T08:50:13.734Z,50.43
2022-12-20T08:52:40.567Z,50.39
2022-12-20T08:55:08.022Z,50.27
2022-12-20T08:57:35.317Z,50.43
2022-12-20T09:00:03.065Z,50.19
2022-12-20T09:02:29.990Z,50.53
2022-12-20T09:04:57.247Z,50.43
2022-12-20T09:07:23.983Z,50.72
2022-12-20T09:09:51.027Z,50.21
2022-12-20T09:12:17.787Z,50.69
2022-12-20T09:14:45.213Z,50.37
2022-12-20T09:17:12.478Z,50.45
2022-12-20T09:19:39.619Z,50.47
2022-12-20T09:22:06.390Z,50.30
2022-12-20T09:24:33.461Z,50.38
2022-12-20T09:27:00.248Z,50.48
2022-12-20T09:29:32.158Z,50.37
2022-12-20T09:32:02.179Z,50.12
2022-12-20T09:34:29.251Z,50.30
2022-12-20T09:36:56.027Z,50.36
2022-12-20T09:39:23.119Z,50.29
2022-12-20T09:41:49.901Z,49.85
2022-12-20T09:44:20.296Z,50.09
2022-12-20T09:46:53.995Z,50.16
2022-12-20T09:49:21.495Z,49.92
2022-12-20T09:52:07.022Z,50.15
2022-12-20T09:54:44.341Z,50.11
2022-12-20T09:57:45.405Z,50.31
2022-12-20T10:00:17.274Z,50.27
2022-12-20T10:02:58.729Z,50.19
2022-12-20T10:05:46.674Z,50.40
2022-12-20T10:08:25.745Z,50.39
2022-12-20T10:11:13.413Z,50.15
2022-12-20T10:13:55.583Z,49.91
2022-12-20T10:16:48.513Z,49.87
2022-12-20T10:19:54.442Z,50.16
2022-12-20T10:22:25.371Z,50.05
2022-12-20T10:25:07.514Z,50.02
2022-12-20T10:27:37.981Z,50.13
2022-12-20T10:30:18.340Z,50.00
2022-12-20T10:32:47.501Z,50.00
2022-12-20T10:35:31.420Z,50.15
2022-12-20T10:38:09.715Z,50.08
2022-12-20T10:43:54.965Z,50.18
2022-12-20T10:46:21.839Z,50.14
2022-12-20T10:48:49.461Z,49.79
2022-12-20T10:51:18.710Z,50.13
2022-12-20T10:53:55.010Z,49.81
2022-12-20T10:56:29.185Z,49.97
2022-12-20T10:59:04.229Z,49.99
2022-12-20T11:01:32.659Z,49.67
2022-12-20T11:04:05.474Z,49.91
2022-12-20T11:06:38.411Z,49.83
2022-12-20T11:09:14.657Z,50.01
2022-12-20T11:11:44.018Z,50.00
2022-12-20T11:14:15.227Z,50.36
2022-12-20T11:16:42.006Z,50.09
2022-12-20T11:19:38.201Z,49.98
2022-12-20T11:22:21.022Z,50.11
2022-12-20T11:25:03.242Z,50.10
2022-12-20T11:27:56.536Z,49.87
2022-12-20T11:30:25.076Z,49.83
2022-12-20T11:33:38.407Z,49.96
2022-12-20T11:36:17.526Z,49.84
2022-12-20T11:39:04.311Z,50.04
2022-12-20T11:41:49.169Z,49.90
2022-12-20T11:44:31.038Z,50.10
2022-12-20T11:47:17.112Z,49.60
2022-12-20T11:49:56.054Z,50.01
2022-12-20T11:52:41.508Z,49.86
2022-12-20T11:55:08.258Z,49.84
2022-12-20T11:58:08.775Z,49.59
2022-12-20T12:00:26.444Z,49.64
2022-12-20T12:02:58.768Z,49.77
2022-12-20T12:05:36.705Z,50.13
2022-12-20T12:08:05.825Z,50.07
2022-12-20T12:10:36.119Z,49.92
2022-12-20T12:13:17.712Z,50.13
2022-12-20T12:16:03.491Z,49.89
2022-12-20T12:18:31.615Z,49.99
2022-12-20T12:21:21.144Z,49.92
2022-12-20T12:24:00.330Z,50.02
2022-12-20T12:26:30.906Z,49.75
2022-12-20T12:28:59.632Z,49.88
2022-12-20T12:31:29.267Z,49.66
2022-12-20T12:34:03.361Z,49.81
2022-12-20T12:36:42.282Z,49.80
2022-12-20T12:39:46.310Z,49.73
2022-12-20T12:42:45.832Z,49.89
2022-12-20T12:45:37.840Z,49.92
2022-12-20T12:48:14.278Z,49.53
2022-12-20T12:50:59.570Z,49.77
2022-12-20T12:53:30.066Z,49.54
2022-12-20T12:56:12.750Z,49.99
2022-12-20T12:58:48.720Z,49.88
2022-12-20T13:01:46.126Z,49.65
2022-12-20T13:04:21.931Z,49.78
2022-12-20T13:06:48.982Z,49.47
2022-12-20T13:09:22.455Z,50.02
2022-12-20T13:11:57.411Z,49.96
2022-12-20T13:14:27.690Z,49.72
2022-12-20T13:17:18.292Z,49.80
2022-12-20T13:19:54.286Z,49.90
2022-12-20T13:22:25.091Z,50.13
2022-12-20T13:24:56.456Z,49.90
2022-12-20T13:27:39.373Z,49.77
2022-12-20T13:30:12.426Z,49.73
2022-12-20T13:32:48.536Z,49.79
2022-12-20T13:35:24.683Z,49.97
2022-12-20T13:38:06.658Z,49.70
2022-12-20T13:40:48.129Z,50.11
2022-12-20T13:43:21.906Z,49.72
2022-12-20T13:45:51.281Z,49.94
2022-12-20T13:48:20.184Z,49.49
2022-12-20T13:50:52.366Z,49.82
2022-12-20T13:53:20.785Z,49.85
2022-12-20T13:55:48.852Z,49.67
2022-12-20T13:58:27.386Z,49.50
2022-12-20T14:00:54.550Z,49.43
2022-12-20T14:03:28.156Z,49.84
2022-12-20T14:06:02.451Z,49.86
2022-12-20T14:08:32.220Z,49.42
2022-12-20T14:11:18.726Z,49.61
2022-12-20T14:13:53.710Z,49.78
2022-12-20T14:16:20.824Z,49.45
2022-12-20T14:19:00.026Z,49.90
2022-12-20T14:21:26.817Z,49.81
2022-12-20T14:23:55.594Z,49.57
2022-12-20T14:26:27.564Z,49.85
2022-12-20T14:28:58.703Z,49.52
2022-12-20T14:31:34.578Z,49.67
2022-12-20T14:34:03.354Z,49.82
2022-12-20T14:36:31.756Z,49.95
2022-12-20T14:38:58.881Z,50.12
2022-12-20T14:41:43.815Z,49.67
2022-12-20T14:44:17.192Z,49.74
2022-12-20T14:46:49.258Z,49.86
2022-12-20T14:49:36.489Z,49.67
2022-12-20T14:52:12.210Z,49.89
2022-12-20T14:55:08.913Z,49.83
2022-12-20T14:57:36.552Z,49.89
2022-12-20T15:00:18.872Z,49.64
2022-12-20T15:02:46.067Z,50.10
2022-12-20T15:05:35.316Z,50.13
2022-12-20T15:08:12.131Z,49.93
2022-12-20T15:10:42.191Z,49.65
2022-12-20T15:13:14.127Z,49.51
2022-12-20T15:15:41.261Z,50.02
2022-12-20T15:18:15.279Z,49.61
2022-12-20T15:20:42.814Z,49.99
2022-12-20T15:23:14.627Z,50.21
2022-12-20T15:25:44.920Z,49.67
2022-12-20T15:28:14.184Z,49.93
2022-12-20T15:30:41.447Z,49.74
2022-12-20T15:33:11.890Z,49.63
2022-12-20T15:35:38.967Z,49.61
2022-12-20T15:38:05.826Z,49.77
2022-12-20T15:40:32.913Z,50.06
2022-12-20T15:42:59.717Z,49.92
2022-12-20T15:45:26.852Z,50.11
2022-12-20T15:47:54.798Z,49.98
2022-12-20T15:50:22.100Z,49.91
2022-12-20T15:52:48.917Z,50.20
2022-12-20T15:55:16.078Z,49.79
2022-12-20T15:57:42.980Z,49.89
2022-12-20T16:00:12.246Z,50.09
2022-12-20T16:02:39.261Z,49.82
2022-12-20T16:05:06.835Z,50.03
2022-12-20T16:07:33.579Z,50.03
2022-12-20T16:10:00.821Z,50.05
2022-12-20T16:12:30.366Z,50.04
2022-12-20T16:14:57.542Z,50.42
2022-12-20T16:17:24.322Z,49.96
2022-12-20T16:19:51.367Z,50.00
2022-12-20T16:22:20.421Z,50.18
2022-12-20T16:24:47.755Z,49.92
2022-12-20T16:27:14.561Z,50.12
2022-12-20T16:29:41.840Z,49.95
2022-12-20T16:32:15.737Z,50.20
2022-12-20T16:34:43.067Z,50.02
2022-12-20T16:37:11.402Z,50.00
2022-12-20T16:39:38.460Z,50.06
2022-12-20T16:42:13.037Z,50.15
2022-12-20T16:44:42.858Z,49.98
2022-12-20T16:47:09.975Z,50.16
2022-12-20T16:49:37.215Z,50.05
2022-12-20T16:52:05.487Z,50.28
2022-12-20T16:54:32.548Z,49.73
2022-12-20T16:56:59.395Z,49.90
2022-12-20T16:59:26.551Z,49.89
2022-12-20T17:01:55.272Z,50.22
2022-12-20T17:04:22.838Z,49.83
2022-12-20T17:06:49.818Z,50.04
2022-12-20T17:09:17.720Z,50.47
2022-12-20T17:11:45.188Z,50.47
2022-12-20T17:14:13.415Z,50.27
2022-12-20T17:16:41.038Z,50.17
2022-12-20T17:19:09.073Z,50.24
2022-12-20T17:24:27.499Z,50.13
2022-12-20T17:26:55.353Z,50.01
2022-12-20T17:29:22.470Z,49.97
2022-12-20T17:31:49.365Z,49.67
2022-12-20T17:34:20.084Z,49.89
2022-12-20T17:36:47.427Z,49.79
2022-12-20T17:39:14.548Z,50.14
2022-12-20T17:41:42.730Z,49.95
2022-12-20T17:44:23.831Z,49.99
2022-12-20T17:46:50.685Z,49.98
2022-12-20T17:49:17.918Z,50.09
2022-12-20T17:51:44.679Z,49.91
2022-12-20T17:54:19.465Z,49.90
2022-12-20T17:56:46.312Z,49.74
2022-12-20T17:59:13.768Z,50.21
2022-12-20T18:01:40.841Z,50.17
2022-12-20T18:04:09.464Z,50.12
2022-12-20T18:06:39.716Z,50.19
2022-12-20T18:09:10.633Z,49.89
2022-12-20T18:11:37.393Z,49.93
2022-12-20T18:14:04.469Z,50.13
2022-12-20T18:16:32.391Z,49.72
2022-12-20T18:18:59.494Z,49.80
2022-12-20T18:21:26.584Z,50.24
2022-12-20T18:23:53.960Z,50.13
2022-12-20T18:26:23.349Z,49.84
2022-12-20T18:28:51.506Z,50.09
2022-12-20T18:31:19.848Z,49.86
2022-12-20T18:33:51.081Z,50.10
2022-12-20T18:36:22.578Z,49.96
2022-12-20T18:38:49.976Z,50.06
2022-12-20T18:41:18.641Z,49.96
2022-12-20T18:43:45.819Z,49.93
2022-12-20T18:46:14.489Z,50.12
2022-12-20T18:48:41.798Z,49.86
2022-12-20T18:51:18.173Z,49.73
2022-12-20T18:53:47.026Z,50.21
2022-12-20T18:56:18.777Z,49.71
2022-12-20T18:58:47.163Z,49.97
2022-12-20T19:01:21.359Z,49.76
2022-12-20T19:03:50.267Z,49.72
2022-12-20T19:06:17.264Z,49.76
2022-12-20T19:08:44.421Z,49.83
2022-12-20T19:11:15.875Z,49.89
2022-12-20T19:13:43.167Z,49.98
2022-12-20T19:16:20.798Z,50.13
2022-12-20T19:18:48.153Z,50.14
2022-12-20T19:21:16.999Z,50.13
2022-12-20T19:23:44.999Z,50.25
2022-12-20T19:26:12.902Z,49.90
2022-12-20T19:28:40.427Z,50.29
2022-12-20T19:31:17.338Z,49.88
2022-12-20T19:33:48.319Z,50.01
2022-12-20T19:36:16.180Z,49.91
2022-12-20T19:38:53.275Z,49.98
2022-12-20T19:41:20.152Z,49.82
2022-12-20T19:43:47.529Z,49.93
2022-12-20T19:46:15.011Z,50.29
2022-12-20T19:48:42.111Z,50.23
2022-12-20T19:51:11.831Z,50.67
2022-12-20T19:53:39.459Z,50.86
2022-12-20T19:56:08.575Z,50.54
2022-12-20T19:58:36.437Z,50.50
2022-12-20T20:01:04.490Z,50.34
2022-12-20T20:03:32.604Z,50.77
2022-12-20T20:05:59.539Z,50.53
2022-12-20T20:08:26.702Z,50.53
2022-12-20T20:10:54.415Z,50.66
2022-12-20T20:13:21.592Z,50.46
2022-12-20T20:15:56.146Z,50.33
2022-12-20T20:18:23.439Z,50.21
2022-12-20T20:20:50.256Z,50.09
2022-12-20T20:23:17.319Z,50.46
2022-12-20T20:25:56.880Z,50.28
2022-12-20T20:28:31.303Z,50.31
2022-12-20T20:30:59.242Z,50.45
2022-12-20T20:33:26.670Z,50.30
2022-12-20T20:35:58.199Z,50.24
2022-12-20T20:38:25.491Z,50.42
2022-12-20T20:40:52.388Z,50.22
2022-12-20T20:43:19.925Z,50.33
2022-12-20T20:45:46.856Z,50.32
2022-12-20T20:48:14.151Z,50.30
2022-12-20T20:50:41.464Z,50.53
2022-12-20T20:53:08.207Z,50.31
2022-12-20T20:55:35.611Z,50.13
2022-12-20T20:58:02.508Z,50.67
2022-12-20T21:00:31.898Z,50.48
2022-12-20T21:02:59.544Z,50.61
2022-12-20T21:08:15.533Z,50.31
2022-12-20T21:10:42.994Z,50.40
2022-12-20T21:13:09.875Z,50.41
2022-12-20T21:15:37.374Z,50.42
2022-12-20T21:18:04.271Z,50.04
2022-12-20T21:20:31.354Z,50.03
2022-12-20T21:22:58.350Z,50.33
2022-12-20T21:25:25.487Z,50.17
2022-12-20T21:27:52.282Z,50.52
2022-12-20T21:30:19.489Z,50.38
2022-12-20T21:32:46.266Z,50.49
2022-12-20T21:35:13.370Z,50.32
2022-12-20T21:37:40.125Z,50.20
2022-12-20T21:40:07.828Z,50.08
2022-12-20T21:42:34.878Z,50.20
2022-12-20T21:45:01.996Z,50.01
2022-12-20T21:47:28.792Z,50.34
2022-12-20T21:49:57.299Z,50.19
2022-12-20T21:52:24.094Z,50.33
2022-12-20T21:54:51.136Z,50.13
2022-12-20T21:57:17.895Z,50.08
2022-12-20T21:59:44.986Z,50.25
2022-12-20T22:02:11.958Z,50.30
2022-12-20T22:04:39.339Z,50.39
2022-12-20T22:07:06.068Z,50.26
2022-12-20T22:09:33.115Z,50.25
2022-12-20T22:11:59.856Z,50.21
2022-12-20T22:14:26.904Z,50.41
2022-12-20T22:16:55.316Z,49.89
2022-12-20T22:19:22.559Z,50.02
2022-12-20T22:21:55.639Z,50.12
2022-12-20T22:24:25.180Z,49.97
2022-12-20T22:26:51.966Z,50.08
2022-12-20T22:29:20.220Z,49.85
2022-12-20T22:31:47.154Z,50.41
2022-12-20T22:34:14.214Z,50.14
2022-12-20T22:36:40.991Z,50.38
2022-12-20T22:39:08.795Z,50.24
2022-12-20T22:41:35.798Z,50.25
2022-12-20T22:44:02.950Z,50.49
2022-12-20T22:49:17.820Z,50.48
2022-12-20T22:51:49.300Z,50.35
2022-12-20T22:54:26.424Z,50.40
2022-12-20T22:56:53.204Z,50.43
2022-12-20T22:59:20.463Z,50.45
2022-12-20T23:01:47.300Z,50.68
2022-12-20T23:04:14.503Z,50.64
2022-12-20T23:06:41.334Z,50.57
2022-12-20T23:09:08.374Z,50.40
2022-12-20T23:11:53.765Z,50.63
2022-12-20T23:14:40.694Z,50.14
2022-12-20T23:17:08.505Z,50.42
2022-12-20T23:19:54.172Z,50.16
2022-12-20T23:22:40.433Z,50.49
2022-12-20T23:25:15.537Z,50.63
2022-12-20T23:27:42.959Z,50.32
2022-12-20T23:30:12.471Z,50.50
2022-12-20T23:32:39.213Z,50.34
2022-12-20T23:35:12.262Z,50.74
2022-12-20T23:37:39.612Z,50.59
2022-12-20T23:40:09.707Z,50.58
2022-12-20T23:42:36.425Z,50.40
2022-12-20T23:45:03.691Z,50.50
2022-12-20T23:47:31.375Z,50.33
2022-12-20T23:49:58.426Z,50.60
2022-12-20T23:52:25.169Z,50.52
2022-12-20T23:54:52.283Z,50.51
2022-12-20T23:57:19.034Z,50.46
2022-12-20T23:59:46.056Z,50.37
